INDIA METEOROLOGICAL DEPARTMENT, R.M.C. NEW DELHI
Dated:25 - 7 - 2014
METARS


Agartala   
VEAT 251230Z 00000KT 5000 HZ FEW020 SCT200 33/27 Q1000 NOSIG=
Ahmedabad  
VAAH 251310Z 28003KT 3000 -RA FEW015 SCT020 OVC080 28/27 Q1002 TEMPO 2000=
Amritsar   
VIAR 251330Z 09005KT 040V110 5000 BR SCT040 SCT200 30/26 Q1002=
Bangalore  
VOBL 251330Z 25010KT 5000 DZ SCT010 FEW025CB OVC080 28/25 Q1013 BECMG 6000 CB TOWARDS N=
Baroda     
VABO 251300Z 00000KT 4000 -TSRA SCT012 SCT020 FEW030CB OVC080 26/25 Q1002=
Bhopal     
VABP 251300Z 24008KT 2500 -RA SCT008 BKN020 OVC 080 23/22 Q1005=
Bhubaneswar
VEBS 251330Z 25008KT 5000 HZ SCT020 BKN100 28/24 Q1002 NOSIG=
Chennai    
SPECI VOMM 251310Z VRB03KT 4000 -TSRA SCT015 FEW025CB BKN080 28/23 Q1004 TEMPO 3000 TSRA=
Coimbatore 
VOCB 251330Z 23010G120KT 6000 SCT015 BKN080 25/23 Q1011 NOSIG=
Colombo    
VCBI 251310Z 24007KT 9999 FEW015 29/24 Q1010 NOSIG=
Delhi      
VIDP 251300Z 11008KT 4500 HZ FEW030 SCT100 32/22 Q1001 NOSIG=
Dehradun   
VIDN 251330Z 21005KT 3500 BR FEW010 SCT020 OVC060 27/25 Q1004=
Gauhati    
VEGT 251330Z 00000KT 5000 HZ FEW020 FEW025CB BKN100 30/26 Q1002 BEC 4000 HZ(RMK CB TO W)=
Gaya       
VEGY 251200Z 00000KT 5000 HZ BKN018 BKN100 32/26 Q1000 =
Goa        
VOGO 251230Z 29008KT 4000 VCSH FEW008 SCT012 FEW022TC BKN080 28/25 Q1007 TEMPO 2000 SHRA=
Hyderabad  
VOHS 251310Z 25007KT 6000 SCT015 SCT025 30/15 Q1007 NOSIG=
Indore     
VAID 251300Z 25008KT 4000 HZ SCT008 SCT020 BKN080 23/22 Q1006=
Jabalpur   
VAJB 251200Z 00000KT 6000 SCT010 SCT020 BKN100 25/23 Q1004=
Jaipur     
VIJP 251330Z 11007KT 4000 HZ SCT030 SCT100 32/23 Q1002 NOSIG=
Khajuraho  
VAKJ 251200Z 23006KT 4000 -DZ SCT015 BKN025 OVC100 28/25 Q1000=
Kochi      
VOCI 251330Z 32008KT 4000 HZ FEW010 SCT015 BKN080 26/24 Q1011 NOSIG=
Kolkata    
VECC 251320Z 14004KT 4000 HZ FEW020 SCT100 31/27 Q1000 NOSIG=
Kozhikode  
SPECI VOCL 251330Z 00000KT 5000 HZ FEW010 SCT012 FEW025CB OVC080 25/23 Q1010 TEMPO 3000 RA=
Lucknow    
VILK 251330Z 00000KT 5000 HZ FEW020 BKN100 31/24 Q1000 NOSIG=
Madurai    
VOMD 251330Z 29014KT 6000 FEW020 SCT100 32/20 Q1008 =
Mumbai     
VABB 251310Z 25013KT 3000 HZ FEW020 SCT025 BKN100 29/26 Q1005 NOSIG=
Nagpur     
VANP 251310Z 32003KT 3000 -RA SCT020 BKN100 27/24 Q1005 NOSIG=
Patna      
VEPT 251320Z 07004KT 5000 HZ FEW020 SCT100 31/26 Q1000 NOSIG=
Safdarjung
VIDD 251300Z 11006KT 3000 HZ FEW040 SCT100 33/25 Q1000=
Ranchi     
VERC 251300Z 20003KT 3500 -RA SCT015 SCT025 FEW030CB BKN100 25/24 Q1005 NOSIG=
Trichy     
VOTR 251310Z 28013G23KT 7000 SCT018 SCT080 34/21 Q1007 NOSIG=
Trivandrum 
VOTV 251310Z 28006KT 5000 HZ FEW015 29/24 Q1009 TEMPO 4000 HZ=
Udaipur    
VAUD 251300Z 22005KT 6000 SCT012 BKN020 OVC080 27/25 Q1003=
Varanasi   
VIBN 251330Z 00000KT 6000 HZ SCT200 32/25 Q1000=
Male       
VRMM 251300Z 24005KT 9999 FEW018 BKN280 30/25 Q1010 NOSIG=
Gan        
VRMG 251300Z 19006KT 9999 FEW018 BKN260 29/24 Q1011=
Kathmandu   
VNKT 251320Z 19004KT 8000 -RA FEW015 SCT025 BKN100 24/21 Q1011 NOSIG=
Dhaka      
VGHS 251250Z 15005KT 4000 HZ FEW015 SCT120 32/24 Q0999 NOSIG=
Colombo     
VCBI 251310Z 24007KT 9999 FEW015 29/24 Q1010 NOSIG=
Karachi     
OPKC 251325Z 22010KT 6000 SCT020 OVC100 30/24 Q1000 TEMPO TSRA FEW025 CB=
Lahore      
OPLA 251330Z 13010KT 4000 FU SCT040 SCT100 32/23 Q1001/A29.57=
Leh        
VILH 251230Z 30019G29KT 6000 FEW070 32/M12 Q1012 NOSIG=
Thoise     
VITX 251230Z 29013G23KT 6000 FEW070 33/M05 Q1012 NOSIG=
Sri Nagar  
VISR 251230Z 34005KT 6000 FEW025 31/20 Q1008 NOSIG=
Jammu      
VIJU 251230Z VRB02KT 6000 SCT025 BKN080 29/23 Q1002 TEMPO -RA=
Gorakhpur  
VEGK 251230Z 04003KT 6000 SCT025 SCT090 32/25 Q0999 NOSIG=
Allahabad  
VIAL 251230Z 22003KT FEW018 SCT025 BKN250 42/35 Q1000 NOSIG=
Agra       
VIAG 251230Z 33003KT 6000 FEW025 SCT090 33/24 Q0999 NOSIG=
Siliguri   
VEBD 251230Z 13007KT 6000 TS FEW020 SCT025 FEW030CB FEW030TCU BKN100 30/25 Q1002 TEMPO 3000 TSRA=
Gwalior    
VIGR 251230Z 10003KT 6000 RA FEW015 SCT025 BKN090 28/25 Q1000 NOSIG=